Terminal Aerodrome Forecast
Issued by NWS

Home | Current Version | Previous Version | Text Only | Print | Product List | Glossary Off
Versions: 1 2 3 4 5 6 7 8 9 10 11 12

000
FTUS45 KGGW 141720
TAFSDY
TAF
KSDY 141720Z 1418/1518 34014KT P6SM VCSH OVC060
     FM142000 34013KT P6SM SCT060
     FM150600 33006KT P6SM FEW030
     FM150700 33006KT P6SM SKC
     FM151200 32007KT P6SM FEW010=

USA.gov is the U.S. government's official web portal to all federal, state and local government web resources and services.